createdAt,value
2019-03-30T00:00:29.775Z,102587.24
2019-03-30T00:02:59.327Z,102584.27
2019-03-30T00:05:28.932Z,102590.96
2019-03-30T00:07:58.797Z,102574.83
2019-03-30T00:10:28.658Z,102573.45
2019-03-30T00:12:58.347Z,102563.64
2019-03-30T00:15:27.891Z,102558.11
2019-03-30T00:17:57.478Z,102562.60
2019-03-30T00:20:27.126Z,102560.33
2019-03-30T00:22:56.715Z,102551.86
2019-03-30T00:25:26.264Z,102545.55
2019-03-30T00:27:55.942Z,102550.52
2019-03-30T00:30:25.596Z,102550.89
2019-03-30T00:32:55.136Z,102546.28
2019-03-30T00:35:24.723Z,102543.72
2019-03-30T00:37:54.593Z,102546.66
2019-03-30T00:40:24.183Z,102539.89
2019-03-30T00:42:53.644Z,102541.97
2019-03-30T00:45:23.240Z,102541.52
2019-03-30T00:47:52.983Z,102535.21
2019-03-30T00:50:22.675Z,102536.03
2019-03-30T00:52:52.681Z,102532.23
2019-03-30T00:55:22.270Z,102536.03
2019-03-30T00:57:51.854Z,102530.56
2019-03-30T01:00:21.740Z,102520.05
2019-03-30T01:02:51.334Z,102527.27
2019-03-30T01:05:20.988Z,102514.27
2019-03-30T01:07:50.532Z,102517.60
2019-03-30T01:10:20.508Z,102509.17
2019-03-30T01:12:50.082Z,102507.09
2019-03-30T01:15:19.770Z,102503.30
2019-03-30T01:17:49.389Z,102504.94
2019-03-30T01:20:19.074Z,102506.61
2019-03-30T01:22:49.004Z,102506.56
2019-03-30T01:25:18.767Z,102493.97
2019-03-30T01:27:48.278Z,102498.13
2019-03-30T01:30:23.418Z,102497.31
2019-03-30T01:32:49.575Z,102487.14
2019-03-30T01:35:19.214Z,102493.86
2019-03-30T01:37:49.190Z,102485.80
2019-03-30T01:40:18.779Z,102484.54
2019-03-30T01:42:48.395Z,102479.90
2019-03-30T01:45:17.933Z,102480.27
2019-03-30T01:47:47.481Z,102474.36
2019-03-30T01:50:18.196Z,102472.62
2019-03-30T01:52:47.720Z,102471.80
2019-03-30T01:55:17.313Z,102466.27
2019-03-30T01:57:47.208Z,102467.53
2019-03-30T02:00:17.589Z,102456.09
2019-03-30T02:02:47.374Z,102461.48
2019-03-30T02:05:17.251Z,102462.70
2019-03-30T02:07:47.145Z,102459.70
2019-03-30T02:10:23.934Z,102462.14
2019-03-30T02:12:53.887Z,102455.34
2019-03-30T02:15:23.530Z,102453.60
2019-03-30T02:17:53.113Z,102451.08
2019-03-30T02:20:36.894Z,102443.91
2019-03-30T02:23:06.596Z,102437.97
2019-03-30T02:25:36.439Z,102436.67
2019-03-30T02:28:07.083Z,102424.78
2019-03-30T02:30:37.292Z,102427.68
2019-03-30T02:33:07.040Z,102426.79
2019-03-30T02:35:36.722Z,102429.31
2019-03-30T02:38:06.370Z,102423.45
2019-03-30T02:40:36.222Z,102423.89
2019-03-30T02:43:05.840Z,102428.12
2019-03-30T02:45:35.545Z,102420.14
2019-03-30T02:48:05.356Z,102424.38
2019-03-30T02:50:48.595Z,102421.00
2019-03-30T02:53:06.220Z,102413.84
2019-03-30T02:55:35.949Z,102423.93
2019-03-30T02:58:05.601Z,102420.59
2019-03-30T03:00:35.247Z,102407.19
2019-03-30T03:03:05.054Z,102412.23
2019-03-30T03:05:34.698Z,102406.81
2019-03-30T03:08:04.240Z,102410.16
2019-03-30T03:10:33.827Z,102409.34
2019-03-30T03:13:03.295Z,102407.63
2019-03-30T03:15:32.994Z,102396.68
2019-03-30T03:18:02.555Z,102393.75
2019-03-30T03:20:32.151Z,102390.85
2019-03-30T03:23:01.741Z,102393.38
2019-03-30T03:25:31.299Z,102396.42
2019-03-30T03:28:00.852Z,102384.65
2019-03-30T03:30:30.541Z,102387.24
2019-03-30T03:33:00.199Z,102389.81
2019-03-30T03:35:29.783Z,102393.19
2019-03-30T03:37:59.638Z,102389.36
2019-03-30T03:40:29.584Z,102383.50
2019-03-30T03:42:59.383Z,102382.61
2019-03-30T03:45:28.932Z,102375.41
2019-03-30T03:47:58.527Z,102378.67
2019-03-30T03:50:42.481Z,102378.53
2019-03-30T03:53:14.059Z,102367.02
2019-03-30T03:55:43.855Z,102370.25
2019-03-30T03:58:15.162Z,102359.64
2019-03-30T04:00:45.316Z,102357.00
2019-03-30T04:03:17.797Z,102362.79
2019-03-30T04:05:49.280Z,102363.13
2019-03-30T04:08:19.133Z,102349.98
2019-03-30T04:10:49.826Z,102354.55
2019-03-30T04:13:19.439Z,102346.45
2019-03-30T04:15:49.059Z,102346.45
2019-03-30T04:18:19.418Z,102346.83
2019-03-30T04:20:49.302Z,102344.71
2019-03-30T04:23:19.124Z,102338.81
2019-03-30T04:25:48.833Z,102338.77
2019-03-30T04:28:18.429Z,102333.73
2019-03-30T04:30:48.024Z,102337.51
2019-03-30T04:33:17.974Z,102337.47
2019-03-30T04:35:47.522Z,102333.66
2019-03-30T04:38:17.477Z,102331.91
2019-03-30T04:40:47.027Z,102338.13
2019-03-30T04:43:16.576Z,102338.09
2019-03-30T04:45:46.171Z,102331.72
2019-03-30T04:48:15.748Z,102330.86
2019-03-30T04:50:45.339Z,102329.93
2019-03-30T04:53:14.886Z,102325.25
2019-03-30T04:55:44.846Z,102326.06
2019-03-30T04:58:14.488Z,102315.42
2019-03-30T05:00:44.082Z,102309.44
2019-03-30T05:03:13.729Z,102313.22
2019-03-30T05:05:43.422Z,102306.52
2019-03-30T05:08:13.227Z,102307.86
2019-03-30T05:10:42.775Z,102306.11
2019-03-30T05:13:12.518Z,102303.66
2019-03-30T05:15:42.211Z,102303.34
2019-03-30T05:18:11.762Z,102297.95
2019-03-30T05:20:41.310Z,102298.92
2019-03-30T05:23:11.313Z,102292.40
2019-03-30T05:25:40.967Z,102295.55
2019-03-30T05:28:10.609Z,102294.09
2019-03-30T05:30:40.185Z,102297.36
2019-03-30T05:33:09.835Z,102308.66
2019-03-30T05:35:39.386Z,102311.28
2019-03-30T05:38:09.395Z,102309.00
2019-03-30T05:40:38.984Z,102306.70
2019-03-30T05:43:08.622Z,102307.75
2019-03-30T05:45:38.201Z,102316.66
2019-03-30T05:48:07.789Z,102313.59
2019-03-30T05:50:37.330Z,102314.34
2019-03-30T05:53:06.962Z,102320.17
2019-03-30T05:55:36.595Z,102320.12
2019-03-30T05:58:06.189Z,102318.25
2019-03-30T06:00:35.733Z,102314.37
2019-03-30T06:03:05.384Z,102303.44
2019-03-30T06:05:35.069Z,102311.97
2019-03-30T06:08:04.665Z,102301.50
2019-03-30T06:10:34.204Z,102295.45
2019-03-30T06:13:03.803Z,102298.55
2019-03-30T06:15:33.448Z,102299.89
2019-03-30T06:18:03.053Z,102293.59
2019-03-30T06:20:32.598Z,102291.56
2019-03-30T06:23:02.143Z,102295.84
2019-03-30T06:25:31.767Z,102293.75
2019-03-30T06:28:01.638Z,102306.06
2019-03-30T06:30:31.342Z,102300.91
2019-03-30T06:33:00.904Z,102299.07
2019-03-30T06:35:30.499Z,102295.98
2019-03-30T06:38:00.052Z,102293.27
2019-03-30T06:40:29.694Z,102286.66
2019-03-30T06:42:59.633Z,102279.62
2019-03-30T06:45:29.561Z,102289.83
2019-03-30T06:47:59.127Z,102296.27
2019-03-30T06:50:28.822Z,102291.32
2019-03-30T06:52:58.884Z,102290.37
2019-03-30T06:55:28.748Z,102293.06
2019-03-30T06:57:58.347Z,102286.58
2019-03-30T07:00:35.175Z,102291.72
2019-03-30T07:03:06.850Z,102287.93
2019-03-30T07:05:43.257Z,102278.61
2019-03-30T07:08:14.667Z,102278.57
2019-03-30T07:10:46.499Z,102265.57
2019-03-30T07:13:16.923Z,102273.41
2019-03-30T07:15:58.238Z,102273.59
2019-03-30T07:18:28.035Z,102260.89
2019-03-30T07:20:57.642Z,102268.64
2019-03-30T07:23:27.136Z,102274.06
2019-03-30T07:25:56.847Z,102264.14
2019-03-30T07:28:26.407Z,102258.74
2019-03-30T07:30:55.961Z,102255.27
2019-03-30T07:33:25.893Z,102252.06
2019-03-30T07:35:55.458Z,102247.58
2019-03-30T07:38:25.079Z,102246.07
2019-03-30T07:40:54.640Z,102237.12
2019-03-30T07:43:24.200Z,102227.38
2019-03-30T07:45:53.754Z,102232.45
2019-03-30T07:48:23.311Z,102224.12
2019-03-30T07:50:53.251Z,102227.80
2019-03-30T07:53:26.691Z,102223.62
2019-03-30T07:56:07.849Z,102221.00
2019-03-30T07:58:25.898Z,102223.55
2019-03-30T08:00:55.525Z,102232.91
2019-03-30T08:03:25.082Z,102225.81
2019-03-30T08:05:54.695Z,102231.20
2019-03-30T08:08:24.602Z,102233.14
2019-03-30T08:10:54.162Z,102234.33
2019-03-30T08:13:23.725Z,102232.44
2019-03-30T08:15:53.331Z,102216.86
2019-03-30T08:18:23.207Z,102216.38
2019-03-30T08:20:52.799Z,102208.48
2019-03-30T08:23:22.359Z,102198.93
2019-03-30T08:25:51.936Z,102206.09
2019-03-30T08:28:21.527Z,102208.46
2019-03-30T08:30:51.223Z,102200.29
2019-03-30T08:33:20.829Z,102203.92
2019-03-30T08:35:50.721Z,102205.23
2019-03-30T08:38:20.274Z,102197.30
2019-03-30T08:40:49.793Z,102203.28
2019-03-30T08:43:19.351Z,102199.82
2019-03-30T08:45:49.135Z,102191.95
2019-03-30T08:48:18.560Z,102200.22
2019-03-30T08:50:48.155Z,102197.48
2019-03-30T08:53:17.758Z,102200.81
2019-03-30T08:55:47.326Z,102189.68
2019-03-30T08:58:16.891Z,102191.52
2019-03-30T09:00:46.483Z,102188.45
2019-03-30T09:03:16.106Z,102192.84
2019-03-30T09:05:45.660Z,102185.22
2019-03-30T09:08:15.267Z,102190.98
2019-03-30T09:10:44.867Z,102178.81
2019-03-30T09:13:14.540Z,102184.22
2019-03-30T09:15:44.161Z,102179.99
2019-03-30T09:18:13.719Z,102173.67
2019-03-30T09:20:43.277Z,102173.27
2019-03-30T09:23:12.957Z,102169.31
2019-03-30T09:25:42.592Z,102168.47
2019-03-30T09:28:12.186Z,102158.21
2019-03-30T09:30:41.750Z,102160.97
2019-03-30T09:33:11.343Z,102163.77
2019-03-30T09:35:40.942Z,102160.59
2019-03-30T09:38:10.579Z,102157.79
2019-03-30T09:40:40.156Z,102164.34
2019-03-30T09:43:09.720Z,102155.36
2019-03-30T09:45:39.445Z,102162.95
2019-03-30T09:48:09.013Z,102154.67
2019-03-30T09:50:38.893Z,102148.91
2019-03-30T09:53:08.459Z,102151.05
2019-03-30T09:55:38.157Z,102140.78
2019-03-30T09:58:07.709Z,102137.19
2019-03-30T10:00:37.191Z,102134.75
2019-03-30T10:03:06.806Z,102141.08
2019-03-30T10:05:36.484Z,102133.44
2019-03-30T10:08:06.101Z,102131.02
2019-03-30T10:10:35.669Z,102130.52
2019-03-30T10:13:05.374Z,102126.70
2019-03-30T10:15:35.277Z,102130.22
2019-03-30T10:18:04.985Z,102130.44
2019-03-30T10:20:34.940Z,102137.73
2019-03-30T10:23:04.520Z,102136.73
2019-03-30T10:25:34.142Z,102124.32
2019-03-30T10:28:03.705Z,102122.55
2019-03-30T10:30:33.314Z,102117.87
2019-03-30T10:33:02.973Z,102125.37
2019-03-30T10:35:32.610Z,102124.39
2019-03-30T10:38:02.238Z,102120.34
2019-03-30T10:40:31.780Z,102104.39
2019-03-30T10:43:01.369Z,102100.07
2019-03-30T10:45:31.037Z,102103.34
2019-03-30T10:48:00.635Z,102097.04
2019-03-30T10:50:30.154Z,102097.70
2019-03-30T10:52:59.769Z,102097.86
2019-03-30T10:55:29.446Z,102100.63
2019-03-30T10:57:59.410Z,102090.05
2019-03-30T11:00:37.040Z,102082.03
2019-03-30T11:03:06.598Z,102072.09
2019-03-30T11:05:36.276Z,102074.09
2019-03-30T11:08:06.060Z,102074.16
2019-03-30T11:10:35.732Z,102060.46
2019-03-30T11:13:05.342Z,102061.38
2019-03-30T11:15:34.911Z,102063.63
2019-03-30T11:18:04.478Z,102062.02
2019-03-30T11:20:34.174Z,102060.34
2019-03-30T11:23:03.812Z,102060.98
2019-03-30T11:25:33.496Z,102052.20
2019-03-30T11:28:03.153Z,102046.52
2019-03-30T11:30:32.760Z,102053.36
2019-03-30T11:33:02.427Z,102056.53
2019-03-30T11:35:32.095Z,102045.98
2019-03-30T11:38:01.655Z,102050.52
2019-03-30T11:40:31.607Z,102049.86
2019-03-30T11:43:01.197Z,102039.77
2019-03-30T11:45:30.840Z,102042.88
2019-03-30T11:48:00.789Z,102042.45
2019-03-30T11:50:30.371Z,102033.84
2019-03-30T11:53:00.324Z,102040.47
2019-03-30T11:55:29.918Z,102031.38
2019-03-30T11:57:59.581Z,102029.03
2019-03-30T12:00:29.184Z,102025.29
2019-03-30T12:02:58.746Z,102026.94
2019-03-30T12:05:28.352Z,102013.63
2019-03-30T12:07:58.039Z,102017.05
2019-03-30T12:10:27.650Z,102012.39
2019-03-30T12:12:57.333Z,102004.27
2019-03-30T12:15:26.894Z,102005.22
2019-03-30T12:17:56.486Z,102007.73
2019-03-30T12:20:26.196Z,101998.59
2019-03-30T12:22:55.856Z,101997.72
2019-03-30T12:25:35.438Z,101990.85
2019-03-30T12:27:56.733Z,101993.63
2019-03-30T12:30:26.345Z,102004.22
2019-03-30T12:32:55.963Z,101998.38
2019-03-30T12:35:25.537Z,101994.53
2019-03-30T12:37:55.095Z,101993.80
2019-03-30T12:40:24.698Z,101989.34
2019-03-30T12:42:54.357Z,101981.48
2019-03-30T12:45:23.964Z,101985.83
2019-03-30T12:47:53.504Z,101969.98
2019-03-30T12:50:23.222Z,101988.38
2019-03-30T12:52:52.812Z,101979.52
2019-03-30T12:55:22.377Z,101966.50
2019-03-30T12:57:52.376Z,101972.37
2019-03-30T13:00:21.977Z,101969.59
2019-03-30T13:02:52.464Z,101960.53
2019-03-30T13:05:22.031Z,101963.61
2019-03-30T13:07:51.985Z,101955.36
2019-03-30T13:10:21.621Z,101950.49
2019-03-30T13:12:51.480Z,101945.57
2019-03-30T13:15:21.081Z,101950.85
2019-03-30T13:17:50.641Z,101949.35
2019-03-30T13:20:20.197Z,101953.78
2019-03-30T13:22:49.798Z,101953.98
2019-03-30T13:25:19.361Z,101951.52
2019-03-30T13:27:48.950Z,101939.88
2019-03-30T13:30:18.946Z,101937.12
2019-03-30T13:32:48.550Z,101943.20
2019-03-30T13:35:18.111Z,101937.20
2019-03-30T13:37:47.897Z,101939.89
2019-03-30T13:40:17.442Z,101925.98
2019-03-30T13:42:47.002Z,101932.86
2019-03-30T13:45:16.610Z,101928.60
2019-03-30T13:47:46.214Z,101934.55
2019-03-30T13:50:15.918Z,101921.47
2019-03-30T13:52:45.486Z,101932.62
2019-03-30T13:55:15.542Z,101924.23
2019-03-30T13:57:45.145Z,101935.34
2019-03-30T14:00:15.152Z,101927.34
2019-03-30T14:02:44.717Z,101926.64
2019-03-30T14:05:14.514Z,101925.00
2019-03-30T14:07:44.041Z,101916.44
2019-03-30T14:10:15.242Z,101911.13
2019-03-30T14:12:44.845Z,101910.59
2019-03-30T14:15:14.401Z,101907.75
2019-03-30T14:17:44.063Z,101894.48
2019-03-30T14:20:13.675Z,101892.97
2019-03-30T14:22:43.287Z,101889.18
2019-03-30T14:25:13.021Z,101888.27
2019-03-30T14:27:42.683Z,101885.30
2019-03-30T14:30:12.499Z,101889.81
2019-03-30T14:32:42.060Z,101873.02
2019-03-30T14:35:11.757Z,101879.83
2019-03-30T14:37:41.360Z,101871.67
2019-03-30T14:40:11.436Z,101866.72
2019-03-30T14:42:41.039Z,101876.61
2019-03-30T14:45:10.804Z,101869.73
2019-03-30T14:47:40.388Z,101877.12
2019-03-30T14:50:10.966Z,101880.84
2019-03-30T14:52:40.681Z,101878.80
2019-03-30T14:55:10.337Z,101880.09
2019-03-30T14:57:39.897Z,101867.88
2019-03-30T15:00:10.191Z,101869.00
2019-03-30T15:02:39.742Z,101884.34
2019-03-30T15:05:09.904Z,101870.28
2019-03-30T15:07:39.505Z,101880.42
2019-03-30T15:10:09.552Z,101881.27
2019-03-30T15:12:39.207Z,101870.23
2019-03-30T15:15:09.665Z,101860.42
2019-03-30T15:17:40.981Z,101850.58
2019-03-30T15:20:10.838Z,101850.43
2019-03-30T15:22:40.508Z,101848.77
2019-03-30T15:25:10.989Z,101848.16
2019-03-30T15:27:40.685Z,101838.13
2019-03-30T15:30:10.718Z,101846.31
2019-03-30T15:32:40.679Z,101843.09
2019-03-30T15:35:10.800Z,101846.81
2019-03-30T15:37:40.399Z,101841.17
2019-03-30T15:40:10.208Z,101839.59
2019-03-30T15:42:40.801Z,101839.21
2019-03-30T15:45:10.640Z,101833.27
2019-03-30T15:47:40.276Z,101832.27
2019-03-30T15:50:11.617Z,101830.39
2019-03-30T15:52:41.180Z,101831.38
2019-03-30T15:55:10.839Z,101841.83
2019-03-30T15:57:40.542Z,101837.92
2019-03-30T16:00:14.196Z,101835.55
2019-03-30T16:02:43.702Z,101838.28
2019-03-30T16:05:15.694Z,101843.97
2019-03-30T16:07:45.041Z,101837.59
2019-03-30T16:10:15.021Z,101842.73
2019-03-30T16:12:44.580Z,101842.88
2019-03-30T16:15:14.186Z,101842.48
2019-03-30T16:17:43.743Z,101844.16
2019-03-30T16:20:15.170Z,101843.83
2019-03-30T16:22:44.894Z,101845.39
2019-03-30T16:25:14.538Z,101842.20
2019-03-30T16:27:44.089Z,101838.84
2019-03-30T16:30:14.140Z,101845.92
2019-03-30T16:32:43.697Z,101850.53
2019-03-30T16:35:13.287Z,101861.95
2019-03-30T16:37:42.841Z,101862.47
2019-03-30T16:40:14.283Z,101853.17
2019-03-30T16:42:43.769Z,101851.42
2019-03-30T16:45:13.761Z,101847.47
2019-03-30T16:47:43.354Z,101842.09
2019-03-30T16:50:13.424Z,101843.61
2019-03-30T16:52:43.112Z,101842.97
2019-03-30T16:55:12.681Z,101836.20
2019-03-30T16:57:43.936Z,101833.69
2019-03-30T17:00:15.456Z,101830.21
2019-03-30T17:02:45.015Z,101828.50
2019-03-30T17:05:14.689Z,101833.14
2019-03-30T17:07:44.604Z,101826.93
2019-03-30T17:10:14.238Z,101824.53
2019-03-30T17:12:44.280Z,101832.61
2019-03-30T17:15:13.935Z,101839.17
2019-03-30T17:17:43.492Z,101842.95
2019-03-30T17:20:13.308Z,101844.95
2019-03-30T17:22:42.898Z,101852.53
2019-03-30T17:25:12.470Z,101859.06
2019-03-30T17:27:56.689Z,101864.39
2019-03-30T17:30:15.453Z,101866.41
2019-03-30T17:32:45.047Z,101876.34
2019-03-30T17:35:14.644Z,101871.34
2019-03-30T17:37:44.234Z,101865.51
2019-03-30T17:40:15.308Z,101868.63
2019-03-30T17:42:44.866Z,101871.31
2019-03-30T17:45:14.571Z,101871.48
2019-03-30T17:47:44.127Z,101869.94
2019-03-30T17:50:14.081Z,101867.51
2019-03-30T17:52:43.666Z,101867.61
2019-03-30T17:55:13.450Z,101881.40
2019-03-30T17:57:43.151Z,101872.23
2019-03-30T18:00:16.177Z,101878.28
2019-03-30T18:02:45.772Z,101886.00
2019-03-30T18:05:15.622Z,101885.27
2019-03-30T18:07:45.175Z,101892.11
2019-03-30T18:10:14.970Z,101897.27
2019-03-30T18:12:44.554Z,101892.24
2019-03-30T18:15:16.004Z,101895.29
2019-03-30T18:17:45.583Z,101904.27
2019-03-30T18:20:15.526Z,101908.94
2019-03-30T18:22:45.089Z,101908.57
2019-03-30T18:25:14.746Z,101907.77
2019-03-30T18:27:44.379Z,101917.58
2019-03-30T18:30:14.554Z,101917.18
2019-03-30T18:32:44.352Z,101919.76
2019-03-30T18:35:14.006Z,101919.38
2019-03-30T18:37:43.919Z,101918.17
2019-03-30T18:40:26.664Z,101916.05
2019-03-30T18:42:56.705Z,101921.98
2019-03-30T18:45:27.809Z,101915.22
2019-03-30T18:48:11.207Z,101922.88
2019-03-30T18:50:41.949Z,101921.63
2019-03-30T18:53:12.231Z,101910.64
2019-03-30T18:55:41.769Z,101920.41
2019-03-30T18:58:11.358Z,101925.09
2019-03-30T19:00:40.925Z,101921.30
2019-03-30T19:03:10.566Z,101921.76
2019-03-30T19:05:40.123Z,101928.55
2019-03-30T19:08:09.674Z,101926.88
2019-03-30T19:10:39.257Z,101927.72
2019-03-30T19:13:08.818Z,101923.51
2019-03-30T19:15:38.800Z,101927.33
2019-03-30T19:18:08.461Z,101921.41
2019-03-30T19:20:38.058Z,101926.05
2019-03-30T19:23:07.605Z,101919.30
2019-03-30T19:25:37.144Z,101917.59
2019-03-30T19:28:07.803Z,101925.66
2019-03-30T19:30:37.506Z,101929.05
2019-03-30T19:33:07.091Z,101937.52
2019-03-30T19:35:36.638Z,101939.64
2019-03-30T19:38:06.218Z,101941.34
2019-03-30T19:40:35.769Z,101946.44
2019-03-30T19:43:05.370Z,101948.98
2019-03-30T19:45:35.009Z,101954.91
2019-03-30T19:48:04.719Z,101953.22
2019-03-30T19:50:34.326Z,101948.98
2019-03-30T19:53:03.834Z,101955.73
2019-03-30T19:55:33.455Z,101963.30
2019-03-30T19:58:03.071Z,101966.25
2019-03-30T20:00:32.703Z,101959.02
2019-03-30T20:03:02.333Z,101967.00
2019-03-30T20:05:31.918Z,101966.97
2019-03-30T20:08:12.166Z,101967.37
2019-03-30T20:10:33.146Z,101980.05
2019-03-30T20:13:03.064Z,101985.55
2019-03-30T20:15:32.779Z,101981.30
2019-03-30T20:18:02.412Z,101987.23
2019-03-30T20:20:32.000Z,101990.64
2019-03-30T20:23:01.551Z,102000.83
2019-03-30T20:25:31.097Z,102000.83
2019-03-30T20:28:00.690Z,102005.44
2019-03-30T20:30:30.376Z,102000.33
2019-03-30T20:33:00.278Z,102010.00
2019-03-30T20:35:29.966Z,102005.42
2019-03-30T20:37:59.856Z,102011.22
2019-03-30T20:40:29.370Z,102014.17
2019-03-30T20:42:58.914Z,102008.62
2019-03-30T20:45:28.494Z,102012.89
2019-03-30T20:47:58.045Z,102017.16
2019-03-30T20:50:27.642Z,102012.47
2019-03-30T20:52:57.193Z,102012.44
2019-03-30T20:55:26.926Z,102007.42
2019-03-30T20:57:56.679Z,102016.31
2019-03-30T21:00:26.241Z,102018.03
2019-03-30T21:02:55.714Z,102011.78
2019-03-30T21:05:25.325Z,102005.89
2019-03-30T21:07:54.921Z,102013.44
2019-03-30T21:10:24.465Z,102006.27
2019-03-30T21:12:54.022Z,102012.20
2019-03-30T21:15:23.609Z,102010.09
2019-03-30T21:17:53.149Z,102019.84
2019-03-30T21:20:22.689Z,102017.75
2019-03-30T21:22:52.222Z,102005.45
2019-03-30T21:25:21.750Z,102012.69
2019-03-30T21:27:51.416Z,102013.95
2019-03-30T21:30:21.162Z,102015.64
2019-03-30T21:32:50.721Z,102016.11
2019-03-30T21:35:20.352Z,102012.72
2019-03-30T21:37:49.909Z,102009.80
2019-03-30T21:40:19.597Z,102011.89
2019-03-30T21:42:49.184Z,102012.34
2019-03-30T21:45:18.842Z,102019.98
2019-03-30T21:47:48.538Z,102012.78
2019-03-30T21:50:18.084Z,102014.90
2019-03-30T21:52:47.643Z,102011.52
2019-03-30T21:55:17.226Z,102014.92
2019-03-30T21:57:46.779Z,102015.34
2019-03-30T22:00:29.702Z,102011.19
2019-03-30T22:02:59.250Z,102012.89
2019-03-30T22:05:28.837Z,102014.17
2019-03-30T22:07:59.085Z,102010.83
2019-03-30T22:10:29.255Z,102015.91
2019-03-30T22:12:58.897Z,102010.41
2019-03-30T22:15:29.170Z,102019.31
2019-03-30T22:17:58.889Z,102019.73
2019-03-30T22:20:28.554Z,102020.16
2019-03-30T22:22:58.095Z,102025.24
2019-03-30T22:25:27.694Z,102022.28
2019-03-30T22:27:57.293Z,102020.58
2019-03-30T22:30:26.886Z,102023.55
2019-03-30T22:32:56.426Z,102019.31
2019-03-30T22:35:25.964Z,102025.67
2019-03-30T22:37:55.556Z,102028.62
2019-03-30T22:40:25.148Z,102032.00
2019-03-30T22:42:54.801Z,102037.08
2019-03-30T22:45:24.383Z,102033.70
2019-03-30T22:47:53.934Z,102033.70
2019-03-30T22:50:23.924Z,102028.61
2019-03-30T22:52:53.469Z,102032.00
2019-03-30T22:55:23.062Z,102030.73
2019-03-30T22:57:52.658Z,102028.61
2019-03-30T23:00:39.990Z,102029.04
2019-03-30T23:03:09.787Z,102029.48
2019-03-30T23:05:39.430Z,102029.06
2019-03-30T23:08:08.969Z,102031.17
2019-03-30T23:10:38.901Z,102029.06
2019-03-30T23:13:08.586Z,102032.88
2019-03-30T23:15:38.062Z,102038.80
2019-03-30T23:18:07.609Z,102041.34
2019-03-30T23:20:37.197Z,102040.08
2019-03-30T23:23:06.783Z,102038.38
2019-03-30T23:25:36.594Z,102044.73
2019-03-30T23:28:06.198Z,102040.92
2019-03-30T23:30:35.831Z,102035.83
2019-03-30T23:33:05.535Z,102035.40
2019-03-30T23:35:35.347Z,102035.41
2019-03-30T23:38:05.018Z,102034.14
2019-03-30T23:40:34.612Z,102031.59
2019-03-30T23:43:04.160Z,102034.56
2019-03-30T23:45:33.745Z,102031.17
2019-03-30T23:48:03.296Z,102035.83
2019-03-30T23:50:32.973Z,102032.87
2019-03-30T23:53:02.521Z,102034.98
2019-03-30T23:55:32.205Z,102037.98
2019-03-30T23:58:01.754Z,102037.55
